sensor_id;sensor_type;location;lat;lon;timestamp;P1;durP1;ratioP1;P2;durP2;ratioP2
10888;SDS011;5497;51.388;6.780;2023-03-14T04:53:02;15.40;;;3.63;;
10888;SDS011;5497;51.388;6.780;2023-03-14T04:55:29;18.83;;;4.53;;
10888;SDS011;5497;51.388;6.780;2023-03-14T04:57:59;13.87;;;3.33;;
10888;SDS011;5497;51.388;6.780;2023-03-14T05:00:26;19.07;;;4.77;;
10888;SDS011;5497;51.388;6.780;2023-03-14T05:03:22;17.40;;;4.37;;
10888;SDS011;5497;51.388;6.780;2023-03-14T05:06:08;19.80;;;4.87;;
10888;SDS011;5497;51.388;6.780;2023-03-14T05:08:54;16.27;;;4.23;;
10888;SDS011;5497;51.388;6.780;2023-03-14T05:12:00;16.30;;;4.07;;
10888;SDS011;5497;51.388;6.780;2023-03-14T05:14:37;18.80;;;4.13;;
10888;SDS011;5497;51.388;6.780;2023-03-14T05:17:15;18.57;;;4.63;;
10888;SDS011;5497;51.388;6.780;2023-03-14T05:20:02;17.47;;;4.37;;
10888;SDS011;5497;51.388;6.780;2023-03-14T05:22:49;16.93;;;3.97;;
10888;SDS011;5497;51.388;6.780;2023-03-14T05:25:36;16.87;;;4.10;;
10888;SDS011;5497;51.388;6.780;2023-03-14T05:28:18;17.93;;;4.40;;
10888;SDS011;5497;51.388;6.780;2023-03-14T05:31:07;20.27;;;5.03;;
10888;SDS011;5497;51.388;6.780;2023-03-14T05:33:46;18.43;;;4.20;;
10888;SDS011;5497;51.388;6.780;2023-03-14T05:36:34;15.33;;;3.50;;
10888;SDS011;5497;51.388;6.780;2023-03-14T05:39:20;18.83;;;3.97;;
10888;SDS011;5497;51.388;6.780;2023-03-14T05:41:59;19.33;;;4.23;;
10888;SDS011;5497;51.388;6.780;2023-03-14T05:44:51;20.33;;;4.67;;
10888;SDS011;5497;51.388;6.780;2023-03-14T05:47:41;18.60;;;5.03;;
10888;SDS011;5497;51.388;6.780;2023-03-14T05:50:34;18.13;;;4.60;;
10888;SDS011;5497;51.388;6.780;2023-03-14T05:53:12;18.73;;;4.70;;
10888;SDS011;5497;51.388;6.780;2023-03-14T05:56:12;16.50;;;4.30;;
10888;SDS011;5497;51.388;6.780;2023-03-14T05:58:57;15.07;;;4.67;;
10888;SDS011;5497;51.388;6.780;2023-03-14T06:01:37;14.80;;;3.73;;
10888;SDS011;5497;51.388;6.780;2023-03-14T06:04:14;20.13;;;4.63;;
10888;SDS011;5497;51.388;6.780;2023-03-14T06:06:43;18.00;;;4.53;;
10888;SDS011;5497;51.388;6.780;2023-03-14T06:09:11;23.07;;;4.40;;
10888;SDS011;5497;51.388;6.780;2023-03-14T06:14:17;17.93;;;4.03;;
10888;SDS011;5497;51.388;6.780;2023-03-14T06:16:46;13.30;;;3.70;;
10888;SDS011;5497;51.388;6.780;2023-03-14T06:19:17;18.60;;;4.37;;
10888;SDS011;5497;51.388;6.780;2023-03-14T06:21:44;15.43;;;3.97;;
10888;SDS011;5497;51.388;6.780;2023-03-14T06:24:12;19.40;;;4.53;;
10888;SDS011;5497;51.388;6.780;2023-03-14T06:26:43;14.73;;;3.90;;
10888;SDS011;5497;51.388;6.780;2023-03-14T06:29:10;14.70;;;3.57;;
10888;SDS011;5497;51.388;6.780;2023-03-14T06:31:39;13.73;;;3.80;;
10888;SDS011;5497;51.388;6.780;2023-03-14T06:34:07;16.57;;;4.20;;
10888;SDS011;5497;51.388;6.780;2023-03-14T06:36:35;15.73;;;3.93;;
10888;SDS011;5497;51.388;6.780;2023-03-14T06:39:03;14.77;;;3.77;;
10888;SDS011;5497;51.388;6.780;2023-03-14T06:41:32;15.37;;;3.87;;
10888;SDS011;5497;51.388;6.780;2023-03-14T06:44:00;13.87;;;3.60;;
10888;SDS011;5497;51.388;6.780;2023-03-14T06:46:27;16.40;;;4.03;;
10888;SDS011;5497;51.388;6.780;2023-03-14T06:48:54;12.87;;;3.37;;
10888;SDS011;5497;51.388;6.780;2023-03-14T06:51:21;15.00;;;3.87;;
10888;SDS011;5497;51.388;6.780;2023-03-14T06:53:50;13.40;;;3.40;;
10888;SDS011;5497;51.388;6.780;2023-03-14T06:56:21;16.30;;;4.20;;
10888;SDS011;5497;51.388;6.780;2023-03-14T06:58:48;15.60;;;3.90;;
10888;SDS011;5497;51.388;6.780;2023-03-14T07:01:17;16.43;;;3.80;;
10888;SDS011;5497;51.388;6.780;2023-03-14T07:03:49;18.17;;;4.53;;
10888;SDS011;5497;51.388;6.780;2023-03-14T07:06:16;15.87;;;3.90;;
10888;SDS011;5497;51.388;6.780;2023-03-14T07:08:44;16.10;;;3.57;;
10888;SDS011;5497;51.388;6.780;2023-03-14T07:13:55;11.53;;;3.00;;
10888;SDS011;5497;51.388;6.780;2023-03-14T07:16:22;14.63;;;3.60;;
10888;SDS011;5497;51.388;6.780;2023-03-14T07:18:50;13.30;;;3.53;;
10888;SDS011;5497;51.388;6.780;2023-03-14T07:21:18;12.90;;;3.50;;
10888;SDS011;5497;51.388;6.780;2023-03-14T07:23:45;12.17;;;3.40;;
10888;SDS011;5497;51.388;6.780;2023-03-14T07:26:13;13.33;;;3.87;;
10888;SDS011;5497;51.388;6.780;2023-03-14T07:28:45;13.47;;;3.87;;
10888;SDS011;5497;51.388;6.780;2023-03-14T07:31:17;14.53;;;3.90;;
10888;SDS011;5497;51.388;6.780;2023-03-14T07:33:45;12.67;;;3.40;;
10888;SDS011;5497;51.388;6.780;2023-03-14T07:36:12;14.30;;;3.63;;
10888;SDS011;5497;51.388;6.780;2023-03-14T07:38:43;12.90;;;3.50;;
10888;SDS011;5497;51.388;6.780;2023-03-14T07:41:28;13.10;;;3.73;;
10888;SDS011;5497;51.388;6.780;2023-03-14T07:44:14;12.87;;;3.43;;
10888;SDS011;5497;51.388;6.780;2023-03-14T07:46:42;14.53;;;3.90;;
10888;SDS011;5497;51.388;6.780;2023-03-14T07:49:09;12.37;;;3.37;;
10888;SDS011;5497;51.388;6.780;2023-03-14T07:51:36;11.67;;;3.40;;
10888;SDS011;5497;51.388;6.780;2023-03-14T07:54:03;12.83;;;3.87;;
10888;SDS011;5497;51.388;6.780;2023-03-14T07:56:30;16.23;;;4.10;;
10888;SDS011;5497;51.388;6.780;2023-03-14T07:58:57;16.67;;;5.47;;
10888;SDS011;5497;51.388;6.780;2023-03-14T08:01:24;14.53;;;4.10;;
10888;SDS011;5497;51.388;6.780;2023-03-14T08:03:52;14.13;;;3.73;;
10888;SDS011;5497;51.388;6.780;2023-03-14T08:06:19;13.17;;;3.40;;
10888;SDS011;5497;51.388;6.780;2023-03-14T08:08:46;11.47;;;3.53;;
10888;SDS011;5497;51.388;6.780;2023-03-14T08:11:13;23.73;;;8.00;;
10888;SDS011;5497;51.388;6.780;2023-03-14T08:13:40;14.53;;;3.87;;
10888;SDS011;5497;51.388;6.780;2023-03-14T08:16:07;15.63;;;4.60;;
10888;SDS011;5497;51.388;6.780;2023-03-14T08:18:34;9.17;;;3.27;;
10888;SDS011;5497;51.388;6.780;2023-03-14T08:21:03;14.83;;;4.20;;
10888;SDS011;5497;51.388;6.780;2023-03-14T08:23:30;14.90;;;4.47;;
10888;SDS011;5497;51.388;6.780;2023-03-14T08:25:57;12.37;;;4.03;;
10888;SDS011;5497;51.388;6.780;2023-03-14T08:28:24;12.43;;;4.07;;
10888;SDS011;5497;51.388;6.780;2023-03-14T08:30:55;20.47;;;5.37;;
10888;SDS011;5497;51.388;6.780;2023-03-14T08:33:22;14.23;;;4.80;;
10888;SDS011;5497;51.388;6.780;2023-03-14T08:35:51;15.03;;;4.63;;
10888;SDS011;5497;51.388;6.780;2023-03-14T08:38:19;13.23;;;4.23;;
10888;SDS011;5497;51.388;6.780;2023-03-14T08:40:46;13.47;;;4.13;;
10888;SDS011;5497;51.388;6.780;2023-03-14T08:43:14;13.97;;;4.50;;
10888;SDS011;5497;51.388;6.780;2023-03-14T08:45:41;15.60;;;4.97;;
10888;SDS011;5497;51.388;6.780;2023-03-14T08:48:08;15.50;;;4.77;;
10888;SDS011;5497;51.388;6.780;2023-03-14T08:50:35;14.20;;;5.63;;
10888;SDS011;5497;51.388;6.780;2023-03-14T08:53:01;16.67;;;5.10;;
10888;SDS011;5497;51.388;6.780;2023-03-14T08:55:30;20.43;;;6.37;;
10888;SDS011;5497;51.388;6.780;2023-03-14T08:57:57;22.43;;;7.87;;
10888;SDS011;5497;51.388;6.780;2023-03-14T09:00:24;32.17;;;13.27;;
10888;SDS011;5497;51.388;6.780;2023-03-14T09:02:50;28.07;;;11.67;;
10888;SDS011;5497;51.388;6.780;2023-03-14T09:05:17;30.10;;;12.33;;
10888;SDS011;5497;51.388;6.780;2023-03-14T09:07:44;27.43;;;11.97;;
10888;SDS011;5497;51.388;6.780;2023-03-14T09:10:11;28.97;;;11.20;;
10888;SDS011;5497;51.388;6.780;2023-03-14T09:12:39;20.57;;;6.90;;
10888;SDS011;5497;51.388;6.780;2023-03-14T09:15:07;13.23;;;3.67;;
10888;SDS011;5497;51.388;6.780;2023-03-14T09:17:34;15.33;;;4.40;;
10888;SDS011;5497;51.388;6.780;2023-03-14T09:20:01;13.20;;;3.53;;
10888;SDS011;5497;51.388;6.780;2023-03-14T09:22:31;13.60;;;3.50;;
10888;SDS011;5497;51.388;6.780;2023-03-14T09:25:00;13.90;;;3.80;;
10888;SDS011;5497;51.388;6.780;2023-03-14T09:27:27;14.93;;;3.93;;
10888;SDS011;5497;51.388;6.780;2023-03-14T09:29:55;14.17;;;3.60;;
10888;SDS011;5497;51.388;6.780;2023-03-14T09:32:22;14.53;;;4.30;;
10888;SDS011;5497;51.388;6.780;2023-03-14T09:34:49;15.03;;;4.00;;
10888;SDS011;5497;51.388;6.780;2023-03-14T09:37:16;16.00;;;4.00;;
10888;SDS011;5497;51.388;6.780;2023-03-14T09:39:43;16.63;;;4.30;;
10888;SDS011;5497;51.388;6.780;2023-03-14T09:42:11;13.73;;;3.50;;
10888;SDS011;5497;51.388;6.780;2023-03-14T09:44:42;11.97;;;3.43;;
10888;SDS011;5497;51.388;6.780;2023-03-14T09:47:18;15.77;;;4.27;;
10888;SDS011;5497;51.388;6.780;2023-03-14T09:49:45;14.97;;;4.00;;
10888;SDS011;5497;51.388;6.780;2023-03-14T09:52:13;13.03;;;3.53;;
10888;SDS011;5497;51.388;6.780;2023-03-14T09:54:45;13.03;;;3.63;;
10888;SDS011;5497;51.388;6.780;2023-03-14T09:57:17;14.23;;;4.03;;
10888;SDS011;5497;51.388;6.780;2023-03-14T09:59:45;14.40;;;3.67;;
10888;SDS011;5497;51.388;6.780;2023-03-14T10:02:14;11.80;;;3.50;;
10888;SDS011;5497;51.388;6.780;2023-03-14T10:04:46;15.77;;;4.17;;
10888;SDS011;5497;51.388;6.780;2023-03-14T10:07:14;12.80;;;3.83;;
10888;SDS011;5497;51.388;6.780;2023-03-14T10:09:44;14.83;;;4.20;;
10888;SDS011;5497;51.388;6.780;2023-03-14T10:12:13;14.13;;;3.90;;
10888;SDS011;5497;51.388;6.780;2023-03-14T10:14:45;19.57;;;8.17;;
10888;SDS011;5497;51.388;6.780;2023-03-14T10:17:14;13.40;;;3.97;;
10888;SDS011;5497;51.388;6.780;2023-03-14T10:19:52;16.70;;;4.60;;
10888;SDS011;5497;51.388;6.780;2023-03-14T10:22:20;16.03;;;4.57;;
10888;SDS011;5497;51.388;6.780;2023-03-14T10:24:51;15.57;;;5.00;;
10888;SDS011;5497;51.388;6.780;2023-03-14T10:27:21;16.87;;;4.87;;
10888;SDS011;5497;51.388;6.780;2023-03-14T10:29:55;12.23;;;3.67;;
10888;SDS011;5497;51.388;6.780;2023-03-14T10:32:28;17.90;;;4.47;;
10888;SDS011;5497;51.388;6.780;2023-03-14T10:35:17;14.10;;;3.80;;
10888;SDS011;5497;51.388;6.780;2023-03-14T10:37:53;16.23;;;4.23;;
10888;SDS011;5497;51.388;6.780;2023-03-14T10:40:24;17.50;;;4.30;;
10888;SDS011;5497;51.388;6.780;2023-03-14T10:42:54;17.67;;;6.00;;
10888;SDS011;5497;51.388;6.780;2023-03-14T10:45:28;16.70;;;4.63;;
10888;SDS011;5497;51.388;6.780;2023-03-14T10:47:58;16.70;;;4.63;;
10888;SDS011;5497;51.388;6.780;2023-03-14T10:50:33;19.23;;;4.40;;
10888;SDS011;5497;51.388;6.780;2023-03-14T10:53:01;18.27;;;4.70;;
10888;SDS011;5497;51.388;6.780;2023-03-14T10:55:39;20.50;;;5.00;;
10888;SDS011;5497;51.388;6.780;2023-03-14T10:58:16;21.77;;;5.07;;
10888;SDS011;5497;51.388;6.780;2023-03-14T11:00:58;17.27;;;4.10;;
10888;SDS011;5497;51.388;6.780;2023-03-14T11:03:31;21.33;;;4.93;;
10888;SDS011;5497;51.388;6.780;2023-03-14T11:06:04;18.50;;;4.60;;
10888;SDS011;5497;51.388;6.780;2023-03-14T11:08:36;18.77;;;4.27;;
10888;SDS011;5497;51.388;6.780;2023-03-14T11:11:11;15.13;;;3.93;;
10888;SDS011;5497;51.388;6.780;2023-03-14T11:13:46;14.27;;;3.90;;
10888;SDS011;5497;51.388;6.780;2023-03-14T11:16:22;17.10;;;4.33;;
10888;SDS011;5497;51.388;6.780;2023-03-14T11:18:59;13.10;;;3.90;;
10888;SDS011;5497;51.388;6.780;2023-03-14T11:21:35;17.00;;;4.03;;
10888;SDS011;5497;51.388;6.780;2023-03-14T11:24:15;14.77;;;3.93;;
10888;SDS011;5497;51.388;6.780;2023-03-14T11:26:54;12.90;;;3.80;;
10888;SDS011;5497;51.388;6.780;2023-03-14T11:29:28;15.53;;;4.30;;
10888;SDS011;5497;51.388;6.780;2023-03-14T11:32:02;20.77;;;4.83;;
10888;SDS011;5497;51.388;6.780;2023-03-14T11:34:35;15.53;;;4.30;;
10888;SDS011;5497;51.388;6.780;2023-03-14T11:37:14;15.17;;;4.27;;
10888;SDS011;5497;51.388;6.780;2023-03-14T11:39:50;18.00;;;4.67;;
10888;SDS011;5497;51.388;6.780;2023-03-14T11:42:22;18.03;;;4.60;;
10888;SDS011;5497;51.388;6.780;2023-03-14T11:44:50;16.03;;;4.17;;
10888;SDS011;5497;51.388;6.780;2023-03-14T11:47:17;17.47;;;4.53;;
10888;SDS011;5497;51.388;6.780;2023-03-14T11:49:49;15.90;;;4.83;;
10888;SDS011;5497;51.388;6.780;2023-03-14T11:52:22;16.60;;;3.77;;
10888;SDS011;5497;51.388;6.780;2023-03-14T11:54:55;12.80;;;3.50;;
10888;SDS011;5497;51.388;6.780;2023-03-14T11:57:26;15.17;;;4.10;;
10888;SDS011;5497;51.388;6.780;2023-03-14T11:59:55;23.27;;;5.57;;
10888;SDS011;5497;51.388;6.780;2023-03-14T12:02:27;20.73;;;5.80;;
10888;SDS011;5497;51.388;6.780;2023-03-14T12:05:18;16.30;;;4.37;;
10888;SDS011;5497;51.388;6.780;2023-03-14T12:08:09;18.80;;;4.90;;
10888;SDS011;5497;51.388;6.780;2023-03-14T12:10:59;18.47;;;4.57;;
10888;SDS011;5497;51.388;6.780;2023-03-14T12:13:29;16.30;;;4.77;;
10888;SDS011;5497;51.388;6.780;2023-03-14T12:16:00;20.47;;;6.43;;
10888;SDS011;5497;51.388;6.780;2023-03-14T12:18:30;21.00;;;7.57;;
10888;SDS011;5497;51.388;6.780;2023-03-14T12:21:00;18.00;;;5.53;;
10888;SDS011;5497;51.388;6.780;2023-03-14T12:23:33;21.03;;;5.07;;
10888;SDS011;5497;51.388;6.780;2023-03-14T12:28:49;19.33;;;5.43;;
10888;SDS011;5497;51.388;6.780;2023-03-14T12:31:37;19.87;;;5.83;;
10888;SDS011;5497;51.388;6.780;2023-03-14T12:36:59;23.40;;;6.50;;
10888;SDS011;5497;51.388;6.780;2023-03-14T12:39:39;22.07;;;6.00;;
10888;SDS011;5497;51.388;6.780;2023-03-14T12:42:12;36.10;;;6.17;;
10888;SDS011;5497;51.388;6.780;2023-03-14T12:44:44;21.20;;;5.33;;
10888;SDS011;5497;51.388;6.780;2023-03-14T12:50:21;21.40;;;5.93;;
10888;SDS011;5497;51.388;6.780;2023-03-14T12:53:06;22.60;;;6.40;;
10888;SDS011;5497;51.388;6.780;2023-03-14T12:55:47;27.80;;;6.90;;
10888;SDS011;5497;51.388;6.780;2023-03-14T12:58:21;27.37;;;5.60;;
10888;SDS011;5497;51.388;6.780;2023-03-14T13:00:55;22.07;;;5.60;;
10888;SDS011;5497;51.388;6.780;2023-03-14T13:03:24;25.23;;;5.67;;
10888;SDS011;5497;51.388;6.780;2023-03-14T13:05:55;16.30;;;4.37;;
10888;SDS011;5497;51.388;6.780;2023-03-14T13:08:32;17.70;;;4.87;;
10888;SDS011;5497;51.388;6.780;2023-03-14T13:11:02;19.20;;;5.00;;
10888;SDS011;5497;51.388;6.780;2023-03-14T13:13:34;22.50;;;4.60;;
10888;SDS011;5497;51.388;6.780;2023-03-14T13:16:03;24.03;;;5.63;;
10888;SDS011;5497;51.388;6.780;2023-03-14T13:18:33;14.97;;;3.40;;
10888;SDS011;5497;51.388;6.780;2023-03-14T13:21:03;20.43;;;4.97;;
10888;SDS011;5497;51.388;6.780;2023-03-14T13:23:36;25.07;;;5.93;;
10888;SDS011;5497;51.388;6.780;2023-03-14T13:26:09;21.03;;;5.30;;
10888;SDS011;5497;51.388;6.780;2023-03-14T13:28:39;20.03;;;5.17;;
10888;SDS011;5497;51.388;6.780;2023-03-14T13:31:12;29.70;;;7.10;;
10888;SDS011;5497;51.388;6.780;2023-03-14T13:33:55;28.67;;;5.07;;
10888;SDS011;5497;51.388;6.780;2023-03-14T13:36:24;28.63;;;5.97;;
10888;SDS011;5497;51.388;6.780;2023-03-14T13:38:55;23.67;;;5.57;;
10888;SDS011;5497;51.388;6.780;2023-03-14T13:41:25;20.83;;;5.40;;
10888;SDS011;5497;51.388;6.780;2023-03-14T13:43:52;26.03;;;5.73;;
10888;SDS011;5497;51.388;6.780;2023-03-14T13:46:27;26.90;;;6.97;;
10888;SDS011;5497;51.388;6.780;2023-03-14T13:48:54;23.43;;;5.43;;
10888;SDS011;5497;51.388;6.780;2023-03-14T13:51:24;18.67;;;5.23;;
10888;SDS011;5497;51.388;6.780;2023-03-14T13:53:54;26.37;;;5.57;;
10888;SDS011;5497;51.388;6.780;2023-03-14T13:56:22;19.27;;;4.77;;
10888;SDS011;5497;51.388;6.780;2023-03-14T13:58:51;23.20;;;5.17;;
10888;SDS011;5497;51.388;6.780;2023-03-14T14:01:19;30.70;;;5.40;;
10888;SDS011;5497;51.388;6.780;2023-03-14T14:03:49;24.23;;;5.30;;
10888;SDS011;5497;51.388;6.780;2023-03-14T14:06:23;19.03;;;5.10;;
10888;SDS011;5497;51.388;6.780;2023-03-14T14:08:54;26.07;;;5.73;;
10888;SDS011;5497;51.388;6.780;2023-03-14T14:11:28;24.67;;;5.43;;
10888;SDS011;5497;51.388;6.780;2023-03-14T14:14:03;24.10;;;5.73;;
10888;SDS011;5497;51.388;6.780;2023-03-14T14:16:32;21.27;;;4.93;;
10888;SDS011;5497;51.388;6.780;2023-03-14T14:18:59;21.40;;;4.60;;
10888;SDS011;5497;51.388;6.780;2023-03-14T14:21:27;23.43;;;4.77;;
10888;SDS011;5497;51.388;6.780;2023-03-14T14:23:55;20.20;;;4.50;;
10888;SDS011;5497;51.388;6.780;2023-03-14T14:26:21;18.57;;;4.50;;
10888;SDS011;5497;51.388;6.780;2023-03-14T14:28:59;19.23;;;4.33;;
10888;SDS011;5497;51.388;6.780;2023-03-14T14:31:30;24.73;;;4.30;;
10888;SDS011;5497;51.388;6.780;2023-03-14T14:33:58;19.17;;;4.50;;
10888;SDS011;5497;51.388;6.780;2023-03-14T14:36:27;15.77;;;4.27;;
10888;SDS011;5497;51.388;6.780;2023-03-14T14:38:57;20.07;;;4.67;;
10888;SDS011;5497;51.388;6.780;2023-03-14T14:41:26;15.67;;;4.03;;
10888;SDS011;5497;51.388;6.780;2023-03-14T14:43:55;19.30;;;4.40;;
10888;SDS011;5497;51.388;6.780;2023-03-14T14:46:25;19.10;;;3.83;;
10888;SDS011;5497;51.388;6.780;2023-03-14T14:48:54;22.10;;;4.70;;
10888;SDS011;5497;51.388;6.780;2023-03-14T14:51:23;15.77;;;4.23;;
10888;SDS011;5497;51.388;6.780;2023-03-14T14:54:02;19.33;;;4.43;;
10888;SDS011;5497;51.388;6.780;2023-03-14T14:56:36;17.00;;;4.10;;
10888;SDS011;5497;51.388;6.780;2023-03-14T14:59:04;13.57;;;3.57;;
10888;SDS011;5497;51.388;6.780;2023-03-14T15:01:34;17.83;;;4.20;;
10888;SDS011;5497;51.388;6.780;2023-03-14T15:04:04;15.90;;;3.93;;
10888;SDS011;5497;51.388;6.780;2023-03-14T15:06:37;18.00;;;4.30;;
10888;SDS011;5497;51.388;6.780;2023-03-14T15:09:04;20.73;;;4.60;;
10888;SDS011;5497;51.388;6.780;2023-03-14T15:11:32;17.23;;;4.27;;
10888;SDS011;5497;51.388;6.780;2023-03-14T15:13:59;15.63;;;4.17;;
10888;SDS011;5497;51.388;6.780;2023-03-14T15:16:27;16.53;;;4.30;;
10888;SDS011;5497;51.388;6.780;2023-03-14T15:18:57;23.80;;;4.17;;
10888;SDS011;5497;51.388;6.780;2023-03-14T15:21:26;16.40;;;4.17;;
10888;SDS011;5497;51.388;6.780;2023-03-14T15:23:54;13.87;;;3.87;;
10888;SDS011;5497;51.388;6.780;2023-03-14T15:26:22;19.00;;;4.00;;
10888;SDS011;5497;51.388;6.780;2023-03-14T15:28:50;13.93;;;3.83;;
10888;SDS011;5497;51.388;6.780;2023-03-14T15:31:18;17.33;;;4.63;;
10888;SDS011;5497;51.388;6.780;2023-03-14T15:33:46;19.77;;;4.17;;
10888;SDS011;5497;51.388;6.780;2023-03-14T15:36:19;16.13;;;4.00;;
10888;SDS011;5497;51.388;6.780;2023-03-14T15:38:48;13.60;;;3.53;;
10888;SDS011;5497;51.388;6.780;2023-03-14T15:41:15;14.33;;;3.80;;
10888;SDS011;5497;51.388;6.780;2023-03-14T15:43:43;16.67;;;3.63;;
10888;SDS011;5497;51.388;6.780;2023-03-14T15:46:11;15.87;;;3.60;;
10888;SDS011;5497;51.388;6.780;2023-03-14T15:48:39;21.30;;;4.20;;
10888;SDS011;5497;51.388;6.780;2023-03-14T15:51:06;14.73;;;3.90;;
10888;SDS011;5497;51.388;6.780;2023-03-14T15:53:35;15.97;;;4.00;;
10888;SDS011;5497;51.388;6.780;2023-03-14T15:56:03;17.07;;;4.80;;
10888;SDS011;5497;51.388;6.780;2023-03-14T15:58:30;11.33;;;2.90;;
10888;SDS011;5497;51.388;6.780;2023-03-14T16:00:59;12.17;;;3.17;;
10888;SDS011;5497;51.388;6.780;2023-03-14T16:03:27;14.40;;;3.50;;
10888;SDS011;5497;51.388;6.780;2023-03-14T16:05:54;13.97;;;3.90;;
10888;SDS011;5497;51.388;6.780;2023-03-14T16:08:21;15.80;;;3.47;;
10888;SDS011;5497;51.388;6.780;2023-03-14T16:10:52;12.13;;;3.53;;
10888;SDS011;5497;51.388;6.780;2023-03-14T16:13:19;11.87;;;3.33;;
10888;SDS011;5497;51.388;6.780;2023-03-14T16:15:53;8.50;;;2.67;;
10888;SDS011;5497;51.388;6.780;2023-03-14T16:18:20;14.63;;;3.50;;
10888;SDS011;5497;51.388;6.780;2023-03-14T16:20:51;14.90;;;3.67;;
10888;SDS011;5497;51.388;6.780;2023-03-14T16:23:19;16.73;;;3.80;;
10888;SDS011;5497;51.388;6.780;2023-03-14T16:25:46;22.20;;;4.73;;
10888;SDS011;5497;51.388;6.780;2023-03-14T16:28:14;25.73;;;5.87;;
10888;SDS011;5497;51.388;6.780;2023-03-14T16:30:41;14.83;;;3.97;;
10888;SDS011;5497;51.388;6.780;2023-03-14T16:33:08;19.23;;;4.40;;
10888;SDS011;5497;51.388;6.780;2023-03-14T16:35:35;19.83;;;4.03;;
10888;SDS011;5497;51.388;6.780;2023-03-14T16:38:02;17.27;;;4.00;;
10888;SDS011;5497;51.388;6.780;2023-03-14T16:40:30;20.20;;;4.20;;
10888;SDS011;5497;51.388;6.780;2023-03-14T16:42:57;21.23;;;4.03;;
10888;SDS011;5497;51.388;6.780;2023-03-14T16:45:25;13.10;;;3.13;;
10888;SDS011;5497;51.388;6.780;2023-03-14T16:47:53;17.90;;;3.50;;
10888;SDS011;5497;51.388;6.780;2023-03-14T16:50:22;17.43;;;4.03;;
10888;SDS011;5497;51.388;6.780;2023-03-14T16:52:49;16.93;;;3.90;;
10888;SDS011;5497;51.388;6.780;2023-03-14T16:55:16;15.20;;;3.83;;
10888;SDS011;5497;51.388;6.780;2023-03-14T16:57:43;15.37;;;3.30;;
10888;SDS011;5497;51.388;6.780;2023-03-14T17:00:10;20.43;;;3.93;;
10888;SDS011;5497;51.388;6.780;2023-03-14T17:02:39;17.33;;;3.80;;
10888;SDS011;5497;51.388;6.780;2023-03-14T17:05:06;18.73;;;3.87;;
10888;SDS011;5497;51.388;6.780;2023-03-14T17:07:33;15.10;;;3.83;;
10888;SDS011;5497;51.388;6.780;2023-03-14T17:10:00;16.00;;;4.10;;
10888;SDS011;5497;51.388;6.780;2023-03-14T17:12:27;18.27;;;4.67;;
10888;SDS011;5497;51.388;6.780;2023-03-14T17:14:54;17.50;;;4.17;;
10888;SDS011;5497;51.388;6.780;2023-03-14T17:17:22;24.40;;;4.67;;
10888;SDS011;5497;51.388;6.780;2023-03-14T17:19:50;16.37;;;4.00;;
10888;SDS011;5497;51.388;6.780;2023-03-14T17:22:17;16.83;;;4.00;;
10888;SDS011;5497;51.388;6.780;2023-03-14T17:24:43;19.97;;;5.27;;
10888;SDS011;5497;51.388;6.780;2023-03-14T17:27:11;26.03;;;4.73;;
10888;SDS011;5497;51.388;6.780;2023-03-14T17:29:42;17.80;;;4.77;;
10888;SDS011;5497;51.388;6.780;2023-03-14T17:32:09;23.97;;;6.07;;
10888;SDS011;5497;51.388;6.780;2023-03-14T17:34:36;18.77;;;4.50;;
10888;SDS011;5497;51.388;6.780;2023-03-14T17:37:04;15.07;;;3.60;;
10888;SDS011;5497;51.388;6.780;2023-03-14T17:39:31;20.93;;;4.50;;
10888;SDS011;5497;51.388;6.780;2023-03-14T17:41:58;18.87;;;4.20;;
10888;SDS011;5497;51.388;6.780;2023-03-14T17:44:25;16.37;;;4.07;;
10888;SDS011;5497;51.388;6.780;2023-03-14T17:46:52;17.17;;;4.60;;
10888;SDS011;5497;51.388;6.780;2023-03-14T17:49:20;19.50;;;4.43;;
10888;SDS011;5497;51.388;6.780;2023-03-14T17:51:47;12.03;;;3.20;;
10888;SDS011;5497;51.388;6.780;2023-03-14T17:54:15;16.73;;;4.20;;
10888;SDS011;5497;51.388;6.780;2023-03-14T17:56:42;17.67;;;4.17;;
10888;SDS011;5497;51.388;6.780;2023-03-14T17:59:09;21.20;;;4.33;;
10888;SDS011;5497;51.388;6.780;2023-03-14T18:01:36;18.73;;;4.50;;
10888;SDS011;5497;51.388;6.780;2023-03-14T18:04:03;13.50;;;3.40;;
10888;SDS011;5497;51.388;6.780;2023-03-14T18:06:30;16.90;;;3.97;;
10888;SDS011;5497;51.388;6.780;2023-03-14T18:08:58;23.43;;;4.97;;
10888;SDS011;5497;51.388;6.780;2023-03-14T18:11:26;22.50;;;5.90;;
10888;SDS011;5497;51.388;6.780;2023-03-14T18:13:54;13.23;;;3.50;;
10888;SDS011;5497;51.388;6.780;2023-03-14T18:16:20;17.67;;;3.93;;
10888;SDS011;5497;51.388;6.780;2023-03-14T18:18:48;18.63;;;3.83;;
10888;SDS011;5497;51.388;6.780;2023-03-14T18:21:16;17.40;;;4.40;;
10888;SDS011;5497;51.388;6.780;2023-03-14T18:23:43;17.93;;;4.73;;
10888;SDS011;5497;51.388;6.780;2023-03-14T18:26:12;20.10;;;4.30;;
10888;SDS011;5497;51.388;6.780;2023-03-14T18:28:40;19.07;;;4.07;;
10888;SDS011;5497;51.388;6.780;2023-03-14T18:31:08;21.57;;;4.90;;
10888;SDS011;5497;51.388;6.780;2023-03-14T18:33:37;17.07;;;4.30;;
10888;SDS011;5497;51.388;6.780;2023-03-14T18:36:07;22.33;;;5.17;;
10888;SDS011;5497;51.388;6.780;2023-03-14T18:38:36;18.30;;;3.90;;
10888;SDS011;5497;51.388;6.780;2023-03-14T18:41:07;16.90;;;4.23;;
10888;SDS011;5497;51.388;6.780;2023-03-14T18:43:35;15.43;;;4.50;;
10888;SDS011;5497;51.388;6.780;2023-03-14T18:46:04;17.77;;;4.03;;
10888;SDS011;5497;51.388;6.780;2023-03-14T18:48:31;14.57;;;3.47;;
10888;SDS011;5497;51.388;6.780;2023-03-14T18:50:59;16.80;;;4.00;;
10888;SDS011;5497;51.388;6.780;2023-03-14T18:53:27;17.17;;;4.10;;
10888;SDS011;5497;51.388;6.780;2023-03-14T18:55:56;17.90;;;3.90;;
10888;SDS011;5497;51.388;6.780;2023-03-14T18:58:23;17.80;;;4.70;;
10888;SDS011;5497;51.388;6.780;2023-03-14T19:00:54;18.17;;;3.83;;
10888;SDS011;5497;51.388;6.780;2023-03-14T19:03:23;16.83;;;3.70;;
10888;SDS011;5497;51.388;6.780;2023-03-14T19:05:51;23.47;;;4.70;;
10888;SDS011;5497;51.388;6.780;2023-03-14T19:08:18;20.47;;;4.73;;
10888;SDS011;5497;51.388;6.780;2023-03-14T19:10:47;20.07;;;3.87;;
10888;SDS011;5497;51.388;6.780;2023-03-14T19:13:15;19.50;;;3.97;;
10888;SDS011;5497;51.388;6.780;2023-03-14T19:15:42;17.97;;;4.10;;
10888;SDS011;5497;51.388;6.780;2023-03-14T19:18:09;32.90;;;6.40;;
10888;SDS011;5497;51.388;6.780;2023-03-14T19:20:38;16.23;;;4.20;;
10888;SDS011;5497;51.388;6.780;2023-03-14T19:23:05;19.87;;;4.30;;
10888;SDS011;5497;51.388;6.780;2023-03-14T19:25:32;16.50;;;4.07;;
10888;SDS011;5497;51.388;6.780;2023-03-14T19:27:59;22.90;;;4.80;;
10888;SDS011;5497;51.388;6.780;2023-03-14T19:30:26;19.33;;;4.17;;
10888;SDS011;5497;51.388;6.780;2023-03-14T19:32:54;22.57;;;5.13;;
10888;SDS011;5497;51.388;6.780;2023-03-14T19:35:21;16.23;;;4.10;;
10888;SDS011;5497;51.388;6.780;2023-03-14T19:37:49;17.27;;;4.20;;
10888;SDS011;5497;51.388;6.780;2023-03-14T19:40:16;15.17;;;3.73;;
10888;SDS011;5497;51.388;6.780;2023-03-14T19:42:45;23.17;;;4.50;;
10888;SDS011;5497;51.388;6.780;2023-03-14T19:45:12;21.60;;;5.30;;
10888;SDS011;5497;51.388;6.780;2023-03-14T19:47:39;27.67;;;5.67;;
10888;SDS011;5497;51.388;6.780;2023-03-14T19:50:06;23.47;;;4.97;;
10888;SDS011;5497;51.388;6.780;2023-03-14T19:52:34;22.20;;;4.97;;
10888;SDS011;5497;51.388;6.780;2023-03-14T19:55:04;29.47;;;5.43;;
10888;SDS011;5497;51.388;6.780;2023-03-14T19:57:31;27.70;;;5.60;;
10888;SDS011;5497;51.388;6.780;2023-03-14T19:59:58;29.80;;;5.93;;
10888;SDS011;5497;51.388;6.780;2023-03-14T20:02:25;27.13;;;5.60;;
10888;SDS011;5497;51.388;6.780;2023-03-14T20:04:52;27.20;;;5.77;;
10888;SDS011;5497;51.388;6.780;2023-03-14T20:07:20;23.33;;;6.40;;
10888;SDS011;5497;51.388;6.780;2023-03-14T20:09:47;25.93;;;5.80;;
10888;SDS011;5497;51.388;6.780;2023-03-14T20:12:16;26.17;;;5.33;;
10888;SDS011;5497;51.388;6.780;2023-03-14T20:14:43;26.03;;;6.20;;